createdAt,value
2019-03-22T00:00:31.274Z,18.95
2019-03-22T00:03:02.265Z,18.37
2019-03-22T00:05:32.728Z,18.07
2019-03-22T00:08:03.430Z,17.87
2019-03-22T00:10:34.133Z,18.45
2019-03-22T00:13:04.889Z,18.42
2019-03-22T00:15:35.428Z,17.05
2019-03-22T00:18:06.149Z,17.40
2019-03-22T00:20:36.809Z,18.15
2019-03-22T00:23:07.340Z,16.30
2019-03-22T00:25:38.050Z,17.90
2019-03-22T00:28:08.769Z,16.82
2019-03-22T00:30:39.406Z,18.23
2019-03-22T00:33:10.524Z,17.45
2019-03-22T00:35:41.245Z,17.10
2019-03-22T00:38:11.807Z,17.55
2019-03-22T00:40:44.290Z,16.65
2019-03-22T00:43:14.902Z,17.05
2019-03-22T00:45:45.614Z,18.37
2019-03-22T00:48:16.237Z,16.80
2019-03-22T00:50:46.976Z,17.15
2019-03-22T00:53:17.533Z,19.27
2019-03-22T00:55:49.963Z,17.80
2019-03-22T00:58:21.634Z,16.77
2019-03-22T01:00:52.625Z,18.02
2019-03-22T01:03:23.151Z,19.67
2019-03-22T01:05:53.818Z,18.95
2019-03-22T01:08:24.761Z,18.87
2019-03-22T01:10:55.487Z,19.60
2019-03-22T01:13:26.170Z,18.80
2019-03-22T01:15:58.065Z,17.82
2019-03-22T01:18:28.789Z,17.50
2019-03-22T01:20:59.546Z,19.85
2019-03-22T01:23:30.271Z,19.70
2019-03-22T01:26:01.021Z,19.60
2019-03-22T01:28:31.607Z,19.65
2019-03-22T01:31:02.194Z,19.30
2019-03-22T01:33:32.852Z,18.65
2019-03-22T01:36:03.483Z,20.68
2019-03-22T01:38:34.144Z,18.98
2019-03-22T01:41:04.843Z,19.00
2019-03-22T01:43:35.785Z,19.82
2019-03-22T01:46:06.487Z,20.10
2019-03-22T01:48:37.144Z,21.15
2019-03-22T01:51:07.836Z,20.48
2019-03-22T01:53:38.403Z,18.82
2019-03-22T01:56:09.055Z,19.52
2019-03-22T01:58:39.543Z,21.20
2019-03-22T02:01:10.103Z,19.42
2019-03-22T02:03:40.803Z,20.65
2019-03-22T02:06:11.454Z,20.23
2019-03-22T02:08:41.955Z,20.82
2019-03-22T02:11:12.469Z,19.23
2019-03-22T02:13:43.123Z,20.35
2019-03-22T02:16:13.720Z,21.15
2019-03-22T02:18:44.543Z,20.12
2019-03-22T02:21:15.199Z,19.90
2019-03-22T02:23:45.916Z,19.50
2019-03-22T02:26:16.544Z,21.52
2019-03-22T02:28:47.211Z,21.25
2019-03-22T02:31:18.093Z,20.97
2019-03-22T02:33:48.593Z,21.20
2019-03-22T02:36:19.205Z,20.68
2019-03-22T02:38:49.882Z,19.40
2019-03-22T02:41:20.477Z,20.32
2019-03-22T02:43:54.432Z,21.35
2019-03-22T02:46:23.490Z,21.75
2019-03-22T02:48:54.358Z,21.33
2019-03-22T02:51:24.915Z,20.90
2019-03-22T02:53:55.615Z,21.23
2019-03-22T02:56:26.224Z,21.10
2019-03-22T02:58:59.340Z,20.97
2019-03-22T03:01:29.411Z,20.72
2019-03-22T03:04:00.022Z,18.98
2019-03-22T03:06:30.685Z,22.50
2019-03-22T03:09:01.419Z,21.35
2019-03-22T03:11:33.620Z,21.05
2019-03-22T03:14:04.322Z,20.88
2019-03-22T03:16:34.956Z,21.62
2019-03-22T03:19:05.647Z,22.55
2019-03-22T03:21:36.362Z,21.73
2019-03-22T03:24:07.046Z,22.20
2019-03-22T03:26:37.717Z,20.55
2019-03-22T03:29:08.323Z,21.05
2019-03-22T03:31:39.046Z,20.77
2019-03-22T03:34:09.706Z,21.30
2019-03-22T03:36:40.373Z,21.20
2019-03-22T03:39:10.910Z,22.07
2019-03-22T03:41:41.528Z,20.45
2019-03-22T03:44:12.206Z,22.55
2019-03-22T03:46:42.817Z,23.30
2019-03-22T03:49:13.610Z,21.42
2019-03-22T03:51:44.465Z,22.90
2019-03-22T03:54:15.332Z,21.65
2019-03-22T03:56:45.893Z,22.17
2019-03-22T03:59:16.586Z,22.60
2019-03-22T04:01:54.954Z,22.37
2019-03-22T04:04:27.833Z,25.23
2019-03-22T04:06:58.594Z,23.07
2019-03-22T04:09:37.309Z,24.23
2019-03-22T04:12:20.451Z,23.22
2019-03-22T04:14:52.269Z,24.57
2019-03-22T04:17:22.880Z,24.47
2019-03-22T04:19:53.700Z,22.73
2019-03-22T04:22:24.405Z,24.52
2019-03-22T04:24:55.086Z,24.43
2019-03-22T04:27:27.698Z,24.60
2019-03-22T04:30:05.706Z,24.18
2019-03-22T04:32:36.663Z,24.25
2019-03-22T04:35:08.146Z,24.95
2019-03-22T04:37:51.540Z,23.73
2019-03-22T04:40:27.850Z,24.85
2019-03-22T04:43:12.200Z,23.98
2019-03-22T04:45:43.160Z,24.43
2019-03-22T04:48:28.177Z,25.15
2019-03-22T04:51:01.704Z,24.43
2019-03-22T04:53:37.884Z,23.77
2019-03-22T04:56:17.112Z,26.52
2019-03-22T04:58:57.130Z,25.50
2019-03-22T05:01:29.130Z,26.25
2019-03-22T05:04:00.115Z,25.72
2019-03-22T05:06:32.824Z,27.42
2019-03-22T05:09:06.303Z,26.05
2019-03-22T05:11:37.405Z,28.47
2019-03-22T05:14:08.515Z,27.80
2019-03-22T05:16:51.344Z,28.02
2019-03-22T05:19:49.505Z,27.82
2019-03-22T05:22:22.263Z,30.05
2019-03-22T05:24:54.786Z,28.62
2019-03-22T05:27:26.772Z,30.32
2019-03-22T05:29:59.375Z,27.50
2019-03-22T05:32:34.848Z,28.52
2019-03-22T05:35:07.445Z,28.20
2019-03-22T05:37:38.248Z,27.93
2019-03-22T05:40:21.315Z,28.50
2019-03-22T05:43:02.284Z,28.55
2019-03-22T05:45:33.344Z,28.55
2019-03-22T05:48:04.111Z,29.32
2019-03-22T05:50:34.754Z,28.02
2019-03-22T05:53:05.872Z,29.15
2019-03-22T05:55:36.527Z,28.05
2019-03-22T05:58:08.827Z,27.30
2019-03-22T06:00:45.637Z,28.47
2019-03-22T06:03:21.520Z,27.58
2019-03-22T06:06:04.453Z,28.27
2019-03-22T06:08:35.207Z,28.12
2019-03-22T06:11:06.530Z,28.62
2019-03-22T06:13:37.203Z,28.83
2019-03-22T06:16:17.998Z,27.37
2019-03-22T06:18:50.498Z,26.15
2019-03-22T06:21:33.600Z,27.25
2019-03-22T06:24:04.546Z,26.65
2019-03-22T06:26:50.206Z,27.70
2019-03-22T06:29:20.848Z,27.95
2019-03-22T06:31:51.524Z,25.48
2019-03-22T06:34:22.224Z,28.38
2019-03-22T06:37:09.620Z,28.20
2019-03-22T06:39:52.562Z,28.30
2019-03-22T06:42:34.453Z,26.80
2019-03-22T06:45:14.531Z,27.95
2019-03-22T06:47:45.531Z,26.85
2019-03-22T06:50:16.405Z,26.00
2019-03-22T06:52:52.199Z,23.85
2019-03-22T06:55:27.140Z,24.32
2019-03-22T06:57:58.440Z,25.70
2019-03-22T07:00:42.853Z,31.50
2019-03-22T07:03:31.860Z,24.85
2019-03-22T07:06:16.756Z,25.10
2019-03-22T07:09:18.839Z,23.87
2019-03-22T07:12:00.371Z,25.40
2019-03-22T07:14:33.252Z,21.52
2019-03-22T07:17:24.147Z,23.60
2019-03-22T07:20:06.980Z,24.87
2019-03-22T07:22:37.733Z,22.37
2019-03-22T07:25:09.393Z,23.92
2019-03-22T07:27:40.212Z,22.13
2019-03-22T07:30:18.727Z,23.07
2019-03-22T07:32:43.752Z,22.55
2019-03-22T07:35:24.959Z,21.95
2019-03-22T07:38:06.740Z,20.35
2019-03-22T07:40:37.464Z,20.05
2019-03-22T07:43:09.686Z,19.35
2019-03-22T07:45:40.318Z,20.43
2019-03-22T07:48:11.152Z,19.57
2019-03-22T07:50:48.162Z,19.55
2019-03-22T07:53:18.765Z,18.23
2019-03-22T07:55:49.591Z,20.20
2019-03-22T07:58:30.458Z,16.77
2019-03-22T08:01:01.176Z,18.55
2019-03-22T08:03:31.855Z,16.55
2019-03-22T08:06:02.650Z,16.60
2019-03-22T08:08:33.578Z,16.12
2019-03-22T08:11:04.477Z,14.07
2019-03-22T08:13:35.655Z,15.32
2019-03-22T08:16:06.586Z,15.43
2019-03-22T08:18:37.524Z,14.75
2019-03-22T08:21:08.256Z,14.45
2019-03-22T08:23:38.888Z,14.73
2019-03-22T08:26:09.745Z,14.35
2019-03-22T08:28:42.576Z,12.93
2019-03-22T08:31:13.313Z,11.30
2019-03-22T08:34:05.264Z,12.63
2019-03-22T08:36:49.691Z,10.60
2019-03-22T08:39:34.323Z,11.12
2019-03-22T08:42:17.178Z,10.93
2019-03-22T08:52:52.648Z,8.60
2019-03-22T08:55:23.610Z,9.43
2019-03-22T08:57:54.337Z,10.23
2019-03-22T09:00:38.283Z,8.65
2019-03-22T09:02:57.557Z,9.03
2019-03-22T09:05:28.372Z,8.48
2019-03-22T09:07:59.286Z,9.10
2019-03-22T09:10:30.024Z,8.70
2019-03-22T09:13:00.896Z,8.43
2019-03-22T09:15:41.163Z,9.13
2019-03-22T09:18:04.101Z,8.48
2019-03-22T09:20:34.923Z,7.53
2019-03-22T09:23:06.637Z,7.40
2019-03-22T09:25:37.377Z,6.92
2019-03-22T09:28:10.258Z,6.30
2019-03-22T09:30:40.581Z,5.90
2019-03-22T09:33:13.398Z,5.90
2019-03-22T09:35:43.719Z,5.40
2019-03-22T09:38:14.327Z,5.90
2019-03-22T09:40:45.127Z,5.20
2019-03-22T09:43:15.720Z,5.67
2019-03-22T09:45:46.409Z,4.67
2019-03-22T09:48:16.953Z,3.47
2019-03-22T09:50:47.709Z,3.45
2019-03-22T09:53:18.535Z,4.12
2019-03-22T09:55:49.318Z,3.12
2019-03-22T09:58:21.047Z,3.33
2019-03-22T10:00:51.890Z,3.25
2019-03-22T10:03:22.910Z,4.12
2019-03-22T10:05:53.783Z,3.90
2019-03-22T10:08:24.593Z,3.95
2019-03-22T10:10:55.381Z,3.72
2019-03-22T10:13:26.468Z,3.98
2019-03-22T10:15:57.365Z,3.83
2019-03-22T10:18:28.210Z,3.90
2019-03-22T10:20:59.045Z,2.98
2019-03-22T10:23:34.088Z,2.75
2019-03-22T10:26:04.679Z,3.50
2019-03-22T10:28:35.386Z,2.55
2019-03-22T10:31:10.153Z,3.42
2019-03-22T10:33:41.109Z,3.87
2019-03-22T10:36:11.763Z,2.92
2019-03-22T10:38:42.384Z,2.30
2019-03-22T10:41:13.432Z,2.30
2019-03-22T10:43:44.029Z,2.17
2019-03-22T10:46:14.597Z,3.05
2019-03-22T10:48:45.337Z,3.10
2019-03-22T10:51:15.855Z,3.27
2019-03-22T10:53:46.537Z,3.12
2019-03-22T10:56:17.065Z,3.05
2019-03-22T10:58:47.624Z,3.33
2019-03-22T11:01:20.144Z,3.40
2019-03-22T11:03:50.699Z,3.33
2019-03-22T11:06:26.314Z,3.50
2019-03-22T11:08:55.455Z,3.33
2019-03-22T11:11:26.274Z,3.17
2019-03-22T11:13:57.004Z,3.37
2019-03-22T11:16:27.621Z,3.47
2019-03-22T11:18:58.358Z,2.90
2019-03-22T11:21:29.070Z,2.90
2019-03-22T11:23:59.719Z,3.50
2019-03-22T11:26:30.344Z,3.10
2019-03-22T11:29:00.945Z,3.12
2019-03-22T11:31:39.506Z,3.22
2019-03-22T11:34:04.201Z,3.35
2019-03-22T11:36:34.744Z,3.60
2019-03-22T11:39:15.415Z,3.37
2019-03-22T11:41:44.056Z,2.95
2019-03-22T11:44:15.719Z,2.98
2019-03-22T11:46:46.495Z,3.37
2019-03-22T11:49:16.971Z,4.08
2019-03-22T11:51:47.863Z,3.37
2019-03-22T11:54:18.501Z,3.47
2019-03-22T11:56:49.019Z,3.83
2019-03-22T11:59:19.455Z,3.80
2019-03-22T12:01:50.076Z,3.87
2019-03-22T12:04:21.835Z,3.98
2019-03-22T12:06:52.441Z,3.87
2019-03-22T12:09:23.461Z,4.37
2019-03-22T12:11:53.938Z,4.17
2019-03-22T12:14:24.518Z,3.60
2019-03-22T12:16:56.616Z,3.90
2019-03-22T12:19:27.443Z,3.60
2019-03-22T12:21:58.085Z,3.80
2019-03-22T12:24:28.783Z,3.37
2019-03-22T12:26:59.597Z,3.25
2019-03-22T12:29:30.256Z,3.83
2019-03-22T12:32:00.797Z,3.12
2019-03-22T12:34:31.559Z,3.70
2019-03-22T12:37:02.196Z,3.45
2019-03-22T12:39:32.845Z,3.67
2019-03-22T12:42:03.582Z,3.00
2019-03-22T12:44:34.240Z,3.20
2019-03-22T12:47:04.996Z,2.77
2019-03-22T12:49:35.590Z,2.83
2019-03-22T12:52:06.222Z,3.33
2019-03-22T12:54:36.953Z,2.98
2019-03-22T12:57:07.987Z,3.15
2019-03-22T12:59:38.723Z,3.40
2019-03-22T13:02:09.493Z,2.60
2019-03-22T13:04:40.637Z,3.25
2019-03-22T13:07:11.337Z,3.00
2019-03-22T13:09:41.924Z,2.42
2019-03-22T13:12:14.136Z,2.40
2019-03-22T13:14:44.778Z,2.45
2019-03-22T13:17:15.436Z,2.47
2019-03-22T13:19:47.142Z,2.92
2019-03-22T13:22:18.768Z,2.70
2019-03-22T13:24:49.320Z,2.67
2019-03-22T13:27:19.891Z,2.72
2019-03-22T13:29:50.489Z,3.00
2019-03-22T13:32:21.183Z,2.00
2019-03-22T13:34:51.729Z,3.33
2019-03-22T13:37:22.307Z,2.90
2019-03-22T13:39:52.983Z,3.12
2019-03-22T13:42:25.176Z,2.75
2019-03-22T13:44:55.857Z,2.83
2019-03-22T13:47:26.612Z,3.10
2019-03-22T13:49:57.297Z,3.02
2019-03-22T13:52:27.926Z,3.17
2019-03-22T13:54:58.435Z,3.25
2019-03-22T13:57:30.270Z,3.47
2019-03-22T14:00:00.852Z,3.35
2019-03-22T14:02:31.597Z,3.25
2019-03-22T14:05:02.304Z,2.90
2019-03-22T14:07:32.928Z,3.70
2019-03-22T14:10:03.575Z,3.05
2019-03-22T14:12:37.445Z,3.30
2019-03-22T14:15:08.763Z,2.72
2019-03-22T14:17:39.435Z,2.90
2019-03-22T14:20:11.480Z,2.20
2019-03-22T14:22:42.562Z,3.17
2019-03-22T14:25:13.205Z,2.45
2019-03-22T14:27:45.737Z,2.98
2019-03-22T14:30:16.995Z,3.22
2019-03-22T14:32:47.538Z,4.17
2019-03-22T14:35:18.057Z,4.10
2019-03-22T14:37:48.743Z,3.40
2019-03-22T14:40:19.300Z,3.60
2019-03-22T14:42:49.923Z,3.12
2019-03-22T14:45:20.691Z,2.75
2019-03-22T14:47:51.224Z,2.92
2019-03-22T14:50:21.879Z,3.70
2019-03-22T14:52:53.513Z,3.30
2019-03-22T14:55:25.503Z,3.52
2019-03-22T14:57:56.410Z,3.25
2019-03-22T15:00:26.978Z,3.55
2019-03-22T15:02:57.862Z,3.30
2019-03-22T15:05:28.403Z,3.98
2019-03-22T15:07:59.122Z,3.83
2019-03-22T15:10:29.775Z,4.00
2019-03-22T15:13:00.691Z,3.40
2019-03-22T15:15:46.601Z,4.22
2019-03-22T15:18:36.203Z,3.17
2019-03-22T15:21:23.217Z,3.37
2019-03-22T15:24:12.948Z,3.37
2019-03-22T15:27:04.169Z,3.65
2019-03-22T15:29:43.303Z,3.45
2019-03-22T15:32:32.935Z,3.20
2019-03-22T15:35:22.623Z,3.02
2019-03-22T15:38:06.199Z,3.00
2019-03-22T15:40:37.044Z,2.80
2019-03-22T15:43:07.842Z,3.12
2019-03-22T15:45:38.429Z,3.42
2019-03-22T15:48:09.102Z,2.62
2019-03-22T15:50:39.903Z,3.17
2019-03-22T15:53:10.543Z,3.35
2019-03-22T15:55:41.277Z,2.80
2019-03-22T15:58:11.948Z,2.80
2019-03-22T16:00:42.626Z,3.17
2019-03-22T16:03:13.330Z,4.37
2019-03-22T16:05:45.025Z,3.85
2019-03-22T16:08:16.266Z,3.37
2019-03-22T16:10:48.305Z,3.58
2019-03-22T16:13:23.035Z,4.25
2019-03-22T16:16:04.664Z,3.15
2019-03-22T16:18:41.083Z,3.33
2019-03-22T16:21:22.789Z,4.53
2019-03-22T16:24:03.685Z,3.92
2019-03-22T16:26:35.640Z,4.33
2019-03-22T16:29:09.911Z,4.47
2019-03-22T16:31:41.450Z,5.28
2019-03-22T16:34:13.593Z,7.92
2019-03-22T16:36:45.659Z,7.22
2019-03-22T16:39:22.157Z,5.62
2019-03-22T16:42:10.148Z,5.90
2019-03-22T16:44:41.998Z,4.08
2019-03-22T16:47:12.544Z,4.62
2019-03-22T16:49:47.641Z,4.53
2019-03-22T16:52:18.754Z,5.05
2019-03-22T16:54:52.234Z,5.33
2019-03-22T16:57:23.757Z,5.28
2019-03-22T16:59:54.630Z,5.92
2019-03-22T17:02:36.437Z,5.55
2019-03-22T17:05:15.410Z,6.28
2019-03-22T17:07:59.996Z,6.40
2019-03-22T17:10:44.768Z,5.75
2019-03-22T17:13:17.023Z,7.83
2019-03-22T17:15:54.304Z,5.95
2019-03-22T17:18:33.537Z,6.17
2019-03-22T17:21:10.979Z,4.72
2019-03-22T17:23:43.504Z,4.83
2019-03-22T17:26:14.477Z,5.47
2019-03-22T17:28:46.295Z,5.12
2019-03-22T17:31:22.038Z,5.08
2019-03-22T17:33:53.083Z,5.45
2019-03-22T17:36:23.808Z,6.05
2019-03-22T17:38:54.571Z,6.55
2019-03-22T17:41:25.236Z,8.78
2019-03-22T17:43:56.033Z,8.73
2019-03-22T17:46:29.974Z,9.75
2019-03-22T17:49:00.611Z,10.40
2019-03-22T17:51:36.413Z,9.70
2019-03-22T17:54:15.033Z,9.35
2019-03-22T17:56:57.950Z,11.28
2019-03-22T17:59:43.756Z,10.60
2019-03-22T18:02:21.138Z,11.05
2019-03-22T18:04:59.529Z,11.28
2019-03-22T18:07:36.855Z,11.78
2019-03-22T18:10:14.567Z,12.55
2019-03-22T18:12:53.176Z,13.40
2019-03-22T18:15:38.549Z,13.48
2019-03-22T18:18:17.040Z,12.70
2019-03-22T18:20:50.779Z,15.23
2019-03-22T18:24:08.275Z,17.42
2019-03-22T18:26:43.326Z,16.80
2019-03-22T18:29:13.822Z,16.07
2019-03-22T18:31:44.516Z,14.58
2019-03-22T18:34:15.317Z,14.03
2019-03-22T18:36:46.365Z,11.97
2019-03-22T18:39:16.956Z,11.73
2019-03-22T18:41:47.692Z,11.15
2019-03-22T18:44:18.446Z,12.53
2019-03-22T18:46:49.164Z,11.48
2019-03-22T18:49:19.786Z,11.93
2019-03-22T18:51:50.403Z,13.55
2019-03-22T18:54:20.976Z,12.98
2019-03-22T18:56:52.057Z,13.03
2019-03-22T18:59:22.664Z,13.70
2019-03-22T19:01:53.361Z,12.78
2019-03-22T19:04:24.076Z,12.68
2019-03-22T19:06:54.682Z,13.38
2019-03-22T19:09:47.519Z,14.87
2019-03-22T19:12:39.619Z,15.60
2019-03-22T19:15:19.682Z,15.18
2019-03-22T19:17:55.993Z,15.13
2019-03-22T19:20:37.246Z,16.12
2019-03-22T19:23:14.293Z,19.02
2019-03-22T19:26:01.256Z,18.82
2019-03-22T19:28:45.083Z,22.98
2019-03-22T19:31:18.198Z,24.18
2019-03-22T19:33:55.788Z,23.52
2019-03-22T19:36:27.139Z,22.90
2019-03-22T19:38:59.367Z,22.55
2019-03-22T19:41:37.596Z,22.65
2019-03-22T19:44:35.187Z,24.43
2019-03-22T19:47:13.072Z,23.87
2019-03-22T19:49:48.598Z,22.93
2019-03-22T19:52:30.229Z,21.55
2019-03-22T19:55:22.839Z,20.55
2019-03-22T19:58:10.046Z,25.25
2019-03-22T20:01:09.022Z,31.52
2019-03-22T20:03:43.229Z,31.40
2019-03-22T20:06:24.463Z,21.23
2019-03-22T20:08:59.298Z,19.47
2019-03-22T20:11:34.218Z,23.57
2019-03-22T20:14:06.338Z,25.57
2019-03-22T20:16:39.498Z,27.20
2019-03-22T20:19:11.396Z,27.13
2019-03-22T20:21:44.016Z,30.60
2019-03-22T20:24:15.937Z,31.15
2019-03-22T20:26:46.628Z,29.82
2019-03-22T20:29:28.774Z,31.95
2019-03-22T20:32:13.084Z,35.52
2019-03-22T20:34:46.545Z,32.07
2019-03-22T20:37:24.044Z,31.95
2019-03-22T20:39:59.488Z,33.67
2019-03-22T20:42:34.303Z,30.27
2019-03-22T20:45:23.282Z,31.20
2019-03-22T20:47:50.155Z,34.87
2019-03-22T20:50:35.362Z,32.88
2019-03-22T20:53:06.305Z,32.30
2019-03-22T20:55:37.763Z,34.58
2019-03-22T20:58:25.407Z,38.67
2019-03-22T21:01:10.832Z,36.17
2019-03-22T21:04:02.349Z,37.47
2019-03-22T21:07:03.976Z,39.27
2019-03-22T21:09:42.139Z,34.83
2019-03-22T21:12:23.515Z,36.08
2019-03-22T21:14:59.171Z,36.73
2019-03-22T21:17:41.234Z,36.38
2019-03-22T21:20:26.065Z,36.60
2019-03-22T21:23:01.209Z,35.60
2019-03-22T21:25:38.464Z,40.77
2019-03-22T21:28:16.140Z,39.17
2019-03-22T21:30:49.886Z,47.07
2019-03-22T21:33:20.551Z,43.23
2019-03-22T21:35:51.211Z,44.13
2019-03-22T21:38:36.853Z,42.17
2019-03-22T21:41:16.699Z,45.73
2019-03-22T21:43:48.433Z,48.73
2019-03-22T21:46:20.092Z,40.98
2019-03-22T21:48:51.829Z,40.38
2019-03-22T21:51:35.932Z,42.70
2019-03-22T21:54:07.208Z,42.33
2019-03-22T21:56:38.475Z,42.45
2019-03-22T21:59:12.644Z,42.00
2019-03-22T22:01:44.044Z,46.63
2019-03-22T22:04:15.858Z,47.87
2019-03-22T22:06:47.825Z,43.83
2019-03-22T22:09:18.567Z,41.67
2019-03-22T22:11:49.258Z,38.13
2019-03-22T22:14:20.753Z,43.60
2019-03-22T22:16:51.425Z,40.10
2019-03-22T22:19:21.957Z,41.80
2019-03-22T22:21:52.461Z,41.43
2019-03-22T22:24:22.985Z,43.10
2019-03-22T22:26:53.626Z,40.83
2019-03-22T22:29:24.194Z,43.28
2019-03-22T22:31:55.848Z,39.77
2019-03-22T22:34:26.349Z,40.40
2019-03-22T22:36:56.893Z,39.17
2019-03-22T22:39:27.518Z,39.37
2019-03-22T22:41:58.153Z,41.87
2019-03-22T22:44:28.885Z,44.67
2019-03-22T22:46:59.426Z,44.53
2019-03-22T22:49:30.035Z,43.40
2019-03-22T22:52:00.715Z,43.57
2019-03-22T22:54:31.570Z,41.73
2019-03-22T22:57:03.834Z,48.50
2019-03-22T22:59:34.442Z,44.83
2019-03-22T23:02:05.170Z,42.17
2019-03-22T23:04:35.847Z,42.17
2019-03-22T23:07:06.551Z,41.33
2019-03-22T23:09:37.132Z,42.80
2019-03-22T23:12:07.829Z,45.40
2019-03-22T23:14:38.602Z,42.85
2019-03-22T23:17:09.222Z,44.63
2019-03-22T23:19:39.794Z,46.80
2019-03-22T23:22:13.384Z,43.77
2019-03-22T23:24:45.865Z,46.03
2019-03-22T23:27:16.585Z,48.03
2019-03-22T23:29:47.221Z,47.27
2019-03-22T23:32:18.886Z,48.17
2019-03-22T23:34:58.650Z,49.50
2019-03-22T23:37:23.144Z,47.27
2019-03-22T23:39:53.741Z,47.53
2019-03-22T23:42:24.545Z,45.83
2019-03-22T23:44:56.274Z,45.57
2019-03-22T23:47:26.992Z,45.10
2019-03-22T23:49:57.613Z,45.57
2019-03-22T23:52:28.412Z,46.13
2019-03-22T23:54:58.890Z,48.27
2019-03-22T23:57:29.464Z,47.23
2019-03-22T23:59:59.948Z,48.77
